createdAt,value
2018-04-24T00:00:37.449Z,101289.33
2018-04-24T00:03:05.568Z,101288.58
2018-04-24T00:05:33.714Z,101294.99
2018-04-24T00:08:01.869Z,101295.11
2018-04-24T00:10:29.994Z,101297.75
2018-04-24T00:12:58.289Z,101303.10
2018-04-24T00:15:26.415Z,101295.67
2018-04-24T00:17:54.542Z,101296.76
2018-04-24T00:20:22.656Z,101292.70
2018-04-24T00:22:50.824Z,101295.63
2018-04-24T00:25:18.929Z,101287.91
2018-04-24T00:27:47.047Z,101292.48
2018-04-24T00:30:15.312Z,101284.36
2018-04-24T00:32:43.452Z,101289.62
2018-04-24T00:35:11.610Z,101288.47
2018-04-24T00:37:39.731Z,101291.08
2018-04-24T00:40:07.883Z,101284.88
2018-04-24T00:42:36.000Z,101277.20
2018-04-24T00:45:04.123Z,101270.95
2018-04-24T00:47:32.262Z,101273.65
2018-04-24T00:50:00.493Z,101274.08
2018-04-24T00:52:28.621Z,101274.95
2018-04-24T00:54:56.747Z,101275.91
2018-04-24T00:57:24.885Z,101284.28
2018-04-24T00:59:53.030Z,101290.48
2018-04-24T01:02:21.169Z,101285.95
2018-04-24T01:04:49.310Z,101278.45
2018-04-24T01:07:17.446Z,101273.96
2018-04-24T01:09:45.582Z,101270.66
2018-04-24T01:12:13.840Z,101266.41
2018-04-24T01:14:41.970Z,101274.66
2018-04-24T01:17:10.095Z,101278.39
2018-04-24T01:19:38.236Z,101273.37
2018-04-24T01:22:06.374Z,101273.59
2018-04-24T01:24:34.476Z,101267.91
2018-04-24T01:27:02.632Z,101260.59
2018-04-24T01:29:30.770Z,101253.89
2018-04-24T01:31:58.875Z,101254.80
2018-04-24T01:34:27.012Z,101257.16
2018-04-24T01:36:55.155Z,101269.73
2018-04-24T01:39:23.294Z,101277.87
2018-04-24T01:41:51.424Z,101269.33
2018-04-24T01:44:19.553Z,101272.05
2018-04-24T01:46:47.695Z,101266.77
2018-04-24T01:49:15.827Z,101264.27
2018-04-24T01:51:43.973Z,101264.80
2018-04-24T01:54:12.102Z,101267.83
2018-04-24T01:56:40.251Z,101265.08
2018-04-24T01:59:08.386Z,101266.19
2018-04-24T02:01:36.495Z,101262.09
2018-04-24T02:04:04.654Z,101266.20
2018-04-24T02:06:32.759Z,101269.56
2018-04-24T02:09:00.877Z,101270.23
2018-04-24T02:11:29.030Z,101260.94
2018-04-24T02:13:57.168Z,101254.88
2018-04-24T02:16:25.301Z,101257.44
2018-04-24T02:18:53.442Z,101253.87
2018-04-24T02:21:21.573Z,101244.45
2018-04-24T02:23:49.725Z,101242.66
2018-04-24T02:26:18.040Z,101237.28
2018-04-24T02:28:46.178Z,101245.08
2018-04-24T02:31:14.316Z,101245.91
2018-04-24T02:33:42.445Z,101251.52
2018-04-24T02:36:10.579Z,101243.28
2018-04-24T02:38:38.714Z,101263.77
2018-04-24T02:41:06.872Z,101256.28
2018-04-24T02:43:34.997Z,101255.81
2018-04-24T02:46:03.108Z,101237.16
2018-04-24T02:48:31.519Z,101238.62
2018-04-24T02:50:59.665Z,101253.56
2018-04-24T02:53:27.787Z,101248.36
2018-04-24T02:55:56.119Z,101251.73
2018-04-24T02:58:24.263Z,101253.84
2018-04-24T03:00:52.374Z,101261.37
2018-04-24T03:03:20.570Z,101265.99
2018-04-24T03:05:48.662Z,101254.88
2018-04-24T03:08:16.772Z,101252.45
2018-04-24T03:10:44.934Z,101252.03
2018-04-24T03:13:13.047Z,101249.55
2018-04-24T03:15:41.160Z,101250.25
2018-04-24T03:18:09.316Z,101253.87
2018-04-24T03:20:37.453Z,101249.28
2018-04-24T03:23:05.558Z,101240.39
2018-04-24T03:25:33.718Z,101232.78
2018-04-24T03:28:01.824Z,101222.25
2018-04-24T03:30:29.935Z,101235.76
2018-04-24T03:32:58.532Z,101243.73
2018-04-24T03:35:26.668Z,101230.16
2018-04-24T03:37:54.812Z,101231.39
2018-04-24T03:40:22.943Z,101236.48
2018-04-24T03:42:53.120Z,101230.61
2018-04-24T03:45:24.533Z,101234.64
2018-04-24T03:47:52.646Z,101230.04
2018-04-24T03:50:20.778Z,101232.27
2018-04-24T03:52:48.934Z,101229.81
2018-04-24T03:55:17.052Z,101222.26
2018-04-24T03:57:45.190Z,101218.41
2018-04-24T04:00:13.339Z,101219.56
2018-04-24T04:02:41.483Z,101211.77
2018-04-24T04:05:09.586Z,101200.23
2018-04-24T04:07:37.798Z,101193.26
2018-04-24T04:10:05.921Z,101196.39
2018-04-24T04:12:34.061Z,101194.80
2018-04-24T04:15:02.367Z,101192.03
2018-04-24T04:17:42.272Z,101198.78
2018-04-24T04:20:22.252Z,101205.41
2018-04-24T04:23:02.026Z,101211.27
2018-04-24T04:25:30.156Z,101221.34
2018-04-24T04:27:58.307Z,101224.30
2018-04-24T04:30:27.280Z,101232.78
2018-04-24T04:32:55.494Z,101242.89
2018-04-24T04:35:23.571Z,101239.19
2018-04-24T04:37:51.775Z,101251.80
2018-04-24T04:40:19.902Z,101255.38
2018-04-24T04:42:48.046Z,101256.36
2018-04-24T04:45:16.170Z,101263.74
2018-04-24T04:47:45.332Z,101262.81
2018-04-24T04:50:13.438Z,101266.49
2018-04-24T04:52:41.557Z,101267.53
2018-04-24T04:55:09.691Z,101266.38
2018-04-24T04:57:37.832Z,101269.91
2018-04-24T05:00:05.932Z,101275.77
2018-04-24T05:02:34.126Z,101279.48
2018-04-24T05:05:02.257Z,101274.93
2018-04-24T05:07:30.373Z,101275.42
2018-04-24T05:12:25.752Z,101275.33
2018-04-24T05:14:53.882Z,101277.86
2018-04-24T05:17:22.007Z,101268.18
2018-04-24T05:19:50.146Z,101273.05
2018-04-24T05:22:18.288Z,101265.10
2018-04-24T05:24:46.409Z,101267.30
2018-04-24T05:27:14.551Z,101268.94
2018-04-24T05:29:42.664Z,101280.27
2018-04-24T05:32:10.866Z,101286.31
2018-04-24T05:34:38.973Z,101291.05
2018-04-24T05:37:07.100Z,101287.05
2018-04-24T05:39:35.332Z,101283.65
2018-04-24T05:42:03.558Z,101287.07
2018-04-24T05:44:31.667Z,101288.16
2018-04-24T05:46:59.795Z,101286.86
2018-04-24T05:49:27.922Z,101286.86
2018-04-24T05:51:56.047Z,101289.67
2018-04-24T05:54:24.214Z,101289.37
2018-04-24T05:56:52.351Z,101293.22
2018-04-24T05:59:20.451Z,101295.72
2018-04-24T06:01:48.789Z,101295.52
2018-04-24T06:04:16.941Z,101292.66
2018-04-24T06:06:48.000Z,101299.11
2018-04-24T06:09:16.143Z,101293.59
2018-04-24T06:11:44.262Z,101295.14
2018-04-24T06:14:12.390Z,101296.27
2018-04-24T06:16:40.530Z,101289.98
2018-04-24T06:19:08.678Z,101290.09
2018-04-24T06:21:36.787Z,101291.85
2018-04-24T06:24:04.920Z,101289.66
2018-04-24T06:26:33.041Z,101294.48
2018-04-24T06:29:01.175Z,101289.98
2018-04-24T06:31:29.294Z,101293.38
2018-04-24T06:33:57.422Z,101281.70
2018-04-24T06:36:25.574Z,101281.13
2018-04-24T06:38:53.712Z,101284.66
2018-04-24T06:41:21.851Z,101281.21
2018-04-24T06:43:49.977Z,101277.48
2018-04-24T06:46:18.123Z,101277.15
2018-04-24T06:48:46.231Z,101275.19
2018-04-24T06:51:14.349Z,101280.33
2018-04-24T06:53:42.488Z,101278.63
2018-04-24T06:56:10.611Z,101280.00
2018-04-24T06:58:38.743Z,101279.72
2018-04-24T07:01:06.876Z,101280.06
2018-04-24T07:03:35.012Z,101277.84
2018-04-24T07:06:03.156Z,101277.92
2018-04-24T07:08:31.309Z,101277.98
2018-04-24T07:10:59.451Z,101288.71
2018-04-24T07:13:27.561Z,101295.20
2018-04-24T07:15:55.695Z,101302.53
2018-04-24T07:18:23.808Z,101292.67
2018-04-24T07:20:51.930Z,101288.32
2018-04-24T07:23:20.132Z,101294.68
2018-04-24T07:25:48.274Z,101293.28
2018-04-24T07:28:16.405Z,101300.99
2018-04-24T07:30:44.529Z,101306.66
2018-04-24T07:33:12.654Z,101301.78
2018-04-24T07:35:40.804Z,101305.73
2018-04-24T07:38:08.932Z,101313.34
2018-04-24T07:40:37.067Z,101310.17
2018-04-24T07:43:05.249Z,101314.67
2018-04-24T07:45:33.555Z,101311.73
2018-04-24T07:48:01.705Z,101316.55
2018-04-24T07:50:29.830Z,101310.26
2018-04-24T07:52:58.396Z,101314.20
2018-04-24T07:55:26.503Z,101306.56
2018-04-24T07:57:54.642Z,101305.52
2018-04-24T08:00:22.774Z,101296.56
2018-04-24T08:02:50.951Z,101296.55
2018-04-24T08:05:19.051Z,101305.10
2018-04-24T08:07:47.195Z,101303.44
2018-04-24T08:10:15.342Z,101311.86
2018-04-24T08:12:43.452Z,101313.42
2018-04-24T08:15:11.595Z,101311.70
2018-04-24T08:17:39.698Z,101310.27
2018-04-24T08:20:07.845Z,101308.29
2018-04-24T08:22:39.623Z,101299.95
2018-04-24T08:25:07.752Z,101300.75
2018-04-24T08:27:35.871Z,101308.95
2018-04-24T08:30:04.002Z,101315.64
2018-04-24T08:32:32.149Z,101305.01
2018-04-24T08:35:00.279Z,101311.34
2018-04-24T08:37:28.437Z,101321.75
2018-04-24T08:39:56.583Z,101322.19
2018-04-24T08:42:24.705Z,101330.52
2018-04-24T08:44:52.856Z,101337.88
2018-04-24T08:47:21.051Z,101345.91
2018-04-24T08:49:49.191Z,101344.36
2018-04-24T08:52:17.338Z,101350.84
2018-04-24T08:54:45.521Z,101350.06
2018-04-24T08:57:13.646Z,101354.05
2018-04-24T08:59:41.800Z,101338.88
2018-04-24T09:02:09.927Z,101344.89
2018-04-24T09:04:40.416Z,101340.66
2018-04-24T09:07:08.613Z,101329.95
2018-04-24T09:09:36.732Z,101326.08
2018-04-24T09:12:04.856Z,101323.75
2018-04-24T09:14:33.003Z,101324.66
2018-04-24T09:17:01.132Z,101333.08
2018-04-24T09:19:29.250Z,101328.02
2018-04-24T09:21:57.380Z,101332.58
2018-04-24T09:24:25.554Z,101335.37
2018-04-24T09:26:53.682Z,101336.88
2018-04-24T09:29:21.776Z,101345.36
2018-04-24T09:31:49.926Z,101349.98
2018-04-24T09:34:18.055Z,101349.90
2018-04-24T09:36:46.193Z,101350.47
2018-04-24T09:39:14.318Z,101352.42
2018-04-24T09:41:42.455Z,101350.98
2018-04-24T09:44:10.598Z,101343.82
2018-04-24T09:46:38.748Z,101338.92
2018-04-24T09:49:06.898Z,101340.89
2018-04-24T09:51:35.044Z,101349.65
2018-04-24T09:54:03.193Z,101346.85
2018-04-24T09:56:31.330Z,101343.48
2018-04-24T09:58:59.541Z,101342.73
2018-04-24T10:01:27.674Z,101339.06
2018-04-24T10:03:55.827Z,101349.56
2018-04-24T10:06:23.963Z,101344.12
2018-04-24T10:08:52.096Z,101344.67
2018-04-24T10:11:20.211Z,101336.50
2018-04-24T10:13:48.471Z,101334.31
2018-04-24T10:16:16.552Z,101344.84
2018-04-24T10:18:44.678Z,101349.48
2018-04-24T10:21:12.822Z,101343.45
2018-04-24T10:23:40.979Z,101341.23
2018-04-24T10:26:09.117Z,101342.30
2018-04-24T10:28:37.448Z,101343.38
2018-04-24T10:31:05.584Z,101328.86
2018-04-24T10:33:33.710Z,101330.69
2018-04-24T10:36:01.866Z,101334.36
2018-04-24T10:38:30.018Z,101333.42
2018-04-24T10:40:58.165Z,101328.17
2018-04-24T10:43:26.321Z,101322.59
2018-04-24T10:45:54.451Z,101324.02
2018-04-24T10:48:22.595Z,101318.97
2018-04-24T10:50:50.734Z,101318.17
2018-04-24T10:53:18.871Z,101322.06
2018-04-24T10:55:47.013Z,101322.44
2018-04-24T10:58:15.151Z,101328.57
2018-04-24T11:00:43.370Z,101317.80
2018-04-24T11:03:13.339Z,101317.20
2018-04-24T11:05:41.484Z,101321.45
2018-04-24T11:08:09.617Z,101331.72
2018-04-24T11:10:37.754Z,101327.84
2018-04-24T11:13:05.913Z,101321.23
2018-04-24T11:15:34.047Z,101309.16
2018-04-24T11:18:02.181Z,101317.22
2018-04-24T11:20:30.503Z,101319.59
2018-04-24T11:22:58.634Z,101317.30
2018-04-24T11:25:26.775Z,101334.63
2018-04-24T11:27:54.932Z,101338.86
2018-04-24T11:30:23.068Z,101336.30
2018-04-24T11:32:51.202Z,101339.73
2018-04-24T11:35:19.324Z,101338.31
2018-04-24T11:37:47.452Z,101347.23
2018-04-24T11:40:15.596Z,101339.13
2018-04-24T11:42:43.737Z,101342.81
2018-04-24T11:45:11.899Z,101329.84
2018-04-24T11:47:40.065Z,101334.92
2018-04-24T11:50:08.211Z,101322.77
2018-04-24T11:52:36.345Z,101320.27
2018-04-24T11:55:04.508Z,101314.78
2018-04-24T11:57:32.650Z,101317.89
2018-04-24T12:00:00.769Z,101320.50
2018-04-24T12:02:28.994Z,101324.72
2018-04-24T12:04:57.066Z,101318.31
2018-04-24T12:07:25.195Z,101314.30
2018-04-24T12:09:53.325Z,101314.59
2018-04-24T12:12:21.659Z,101310.75
2018-04-24T12:14:49.786Z,101317.08
2018-04-24T12:17:17.928Z,101314.12
2018-04-24T12:19:46.188Z,101320.63
2018-04-24T12:22:14.330Z,101321.31
2018-04-24T12:24:42.454Z,101305.38
2018-04-24T12:27:10.599Z,101311.06
2018-04-24T12:29:38.737Z,101315.60
2018-04-24T12:32:06.875Z,101311.55
2018-04-24T12:34:35.004Z,101307.27
2018-04-24T12:37:03.129Z,101307.48
2018-04-24T12:39:31.257Z,101299.33
2018-04-24T12:41:59.481Z,101302.42
2018-04-24T12:44:27.622Z,101295.23
2018-04-24T12:46:55.771Z,101302.55
2018-04-24T12:49:23.919Z,101298.87
2018-04-24T12:51:52.071Z,101299.44
2018-04-24T12:54:20.190Z,101287.28
2018-04-24T12:56:48.434Z,101287.00
2018-04-24T12:59:16.569Z,101286.26
2018-04-24T13:01:44.693Z,101295.66
2018-04-24T13:04:13.881Z,101289.91
2018-04-24T13:06:42.020Z,101285.41
2018-04-24T13:09:10.164Z,101282.41
2018-04-24T13:11:38.373Z,101272.77
2018-04-24T13:14:06.526Z,101269.94
2018-04-24T13:16:34.659Z,101264.48
2018-04-24T13:19:03.108Z,101264.97
2018-04-24T13:21:31.231Z,101260.13
2018-04-24T13:24:02.298Z,101262.20
2018-04-24T13:26:30.438Z,101267.42
2018-04-24T13:28:58.573Z,101262.77
2018-04-24T13:31:26.691Z,101261.92
2018-04-24T13:33:54.839Z,101265.00
2018-04-24T13:36:22.984Z,101253.66
2018-04-24T13:38:51.124Z,101246.34
2018-04-24T13:41:19.270Z,101248.05
2018-04-24T13:43:47.429Z,101232.53
2018-04-24T13:46:15.563Z,101226.87
2018-04-24T13:48:43.700Z,101230.83
2018-04-24T13:51:11.833Z,101234.66
2018-04-24T13:53:39.987Z,101233.04
2018-04-24T13:56:08.120Z,101231.78
2018-04-24T13:58:36.317Z,101229.48
2018-04-24T14:01:04.447Z,101228.30
2018-04-24T14:03:32.595Z,101219.80
2018-04-24T14:06:00.746Z,101204.38
2018-04-24T14:08:28.879Z,101206.53
2018-04-24T14:10:57.027Z,101201.23
2018-04-24T14:13:25.159Z,101197.98
2018-04-24T14:15:53.317Z,101203.07
2018-04-24T14:18:21.476Z,101204.88
2018-04-24T14:20:49.594Z,101194.00
2018-04-24T14:23:17.759Z,101186.77
2018-04-24T14:25:45.884Z,101185.67
2018-04-24T14:28:14.050Z,101177.23
2018-04-24T14:30:42.183Z,101171.83
2018-04-24T14:33:10.331Z,101173.13
2018-04-24T14:35:38.482Z,101163.48
2018-04-24T14:38:06.623Z,101153.09
2018-04-24T14:40:34.783Z,101150.57
2018-04-24T14:43:02.941Z,101143.72
2018-04-24T14:45:31.102Z,101146.27
2018-04-24T14:47:59.263Z,101133.30
2018-04-24T14:50:27.394Z,101142.89
2018-04-24T14:52:55.540Z,101144.50
2018-04-24T14:55:23.765Z,101133.19
2018-04-24T14:57:51.906Z,101139.63
2018-04-24T15:00:20.036Z,101135.28
2018-04-24T15:02:48.202Z,101131.55
2018-04-24T15:05:16.331Z,101127.89
2018-04-24T15:07:44.460Z,101115.53
2018-04-24T15:10:12.616Z,101111.37
2018-04-24T15:12:40.732Z,101112.23
2018-04-24T15:15:08.949Z,101099.38
2018-04-24T15:17:37.054Z,101101.16
2018-04-24T15:20:05.192Z,101095.95
2018-04-24T15:22:33.428Z,101089.75
2018-04-24T15:25:01.580Z,101093.76
2018-04-24T15:27:29.712Z,101084.20
2018-04-24T15:29:57.849Z,101081.04
2018-04-24T15:32:25.984Z,101071.58
2018-04-24T15:34:55.089Z,101079.72
2018-04-24T15:37:23.204Z,101065.86
2018-04-24T15:39:51.357Z,101069.48
2018-04-24T15:42:19.502Z,101068.42
2018-04-24T15:44:47.713Z,101072.29
2018-04-24T15:47:15.889Z,101064.31
2018-04-24T15:49:44.005Z,101062.69
2018-04-24T15:52:12.146Z,101062.83
2018-04-24T15:54:40.289Z,101070.60
2018-04-24T15:57:11.344Z,101068.58
2018-04-24T15:59:39.490Z,101061.64
2018-04-24T16:02:11.418Z,101067.50
2018-04-24T16:04:39.575Z,101061.82
2018-04-24T16:07:07.732Z,101062.17
2018-04-24T16:09:35.980Z,101062.57
2018-04-24T16:12:04.124Z,101061.63
2018-04-24T16:14:32.280Z,101057.60
2018-04-24T16:17:00.478Z,101048.52
2018-04-24T16:19:28.724Z,101051.56
2018-04-24T16:21:56.788Z,101045.62
2018-04-24T16:24:24.934Z,101049.41
2018-04-24T16:26:53.119Z,101046.09
2018-04-24T16:29:22.137Z,101041.59
2018-04-24T16:31:50.285Z,101036.84
2018-04-24T16:34:18.403Z,101037.03
2018-04-24T16:36:46.549Z,101039.09
2018-04-24T16:39:14.702Z,101032.41
2018-04-24T16:41:42.837Z,101033.13
2018-04-24T16:44:10.987Z,101021.91
2018-04-24T16:46:39.173Z,101013.08
2018-04-24T16:49:07.299Z,101004.78
2018-04-24T16:51:38.521Z,101006.44
2018-04-24T16:54:06.686Z,101003.71
2018-04-24T16:56:34.812Z,100994.38
2018-04-24T16:59:02.974Z,100992.39
2018-04-24T17:01:31.120Z,100995.89
2018-04-24T17:03:59.264Z,100996.99
2018-04-24T17:06:27.402Z,100994.88
2018-04-24T17:08:55.562Z,100987.27
2018-04-24T17:11:23.767Z,100989.09
2018-04-24T17:13:51.858Z,100987.95
2018-04-24T17:16:20.033Z,100980.81
2018-04-24T17:18:48.176Z,100972.59
2018-04-24T17:21:16.307Z,100970.94
2018-04-24T17:23:44.453Z,100971.47
2018-04-24T17:26:12.587Z,100966.72
2018-04-24T17:28:40.730Z,100956.59
2018-04-24T17:31:08.905Z,100952.91
2018-04-24T17:33:37.038Z,100958.92
2018-04-24T17:36:05.199Z,100954.52
2018-04-24T17:38:33.360Z,100952.08
2018-04-24T17:41:01.531Z,100949.90
2018-04-24T17:43:29.677Z,100951.91
2018-04-24T17:45:57.825Z,100953.80
2018-04-24T17:48:25.954Z,100952.84
2018-04-24T17:50:54.132Z,100952.64
2018-04-24T17:53:22.244Z,100946.36
2018-04-24T17:55:50.393Z,100940.94
2018-04-24T17:58:18.518Z,100932.77
2018-04-24T18:00:46.676Z,100936.73
2018-04-24T18:03:14.803Z,100936.82
2018-04-24T18:05:42.949Z,100934.14
2018-04-24T18:08:11.113Z,100936.44
2018-04-24T18:10:39.246Z,100934.48
2018-04-24T18:13:07.373Z,100930.37
2018-04-24T18:15:35.544Z,100944.38
2018-04-24T18:18:03.666Z,100944.16
2018-04-24T18:20:31.799Z,100947.18
2018-04-24T18:22:59.951Z,100951.02
2018-04-24T18:25:28.074Z,100945.78
2018-04-24T18:27:56.207Z,100937.38
2018-04-24T18:30:24.344Z,100938.78
2018-04-24T18:32:52.478Z,100946.73
2018-04-24T18:35:20.596Z,100939.70
2018-04-24T18:37:48.753Z,100930.14
2018-04-24T18:40:16.933Z,100931.07
2018-04-24T18:42:45.011Z,100926.69
2018-04-24T18:45:13.140Z,100925.70
2018-04-24T18:47:41.343Z,100923.68
2018-04-24T18:50:09.502Z,100924.57
2018-04-24T18:52:37.647Z,100920.73
2018-04-24T18:55:05.794Z,100918.51
2018-04-24T18:57:33.975Z,100915.85
2018-04-24T19:00:02.093Z,100921.02
2018-04-24T19:02:30.223Z,100922.45
2018-04-24T19:04:58.356Z,100921.02
2018-04-24T19:07:30.358Z,100919.25
2018-04-24T19:09:58.495Z,100922.17
2018-04-24T19:12:26.635Z,100918.05
2018-04-24T19:14:54.788Z,100899.43
2018-04-24T19:17:22.930Z,100905.95
2018-04-24T19:19:51.068Z,100913.59
2018-04-24T19:22:19.232Z,100904.45
2018-04-24T19:24:52.943Z,100911.89
2018-04-24T19:27:21.124Z,100906.56
2018-04-24T19:29:49.244Z,100903.59
2018-04-24T19:32:26.441Z,100904.98
2018-04-24T19:34:54.578Z,100898.54
2018-04-24T19:37:23.353Z,100897.17
2018-04-24T19:39:57.195Z,100893.27
2018-04-24T19:42:25.442Z,100900.02
2018-04-24T19:44:53.584Z,100900.31
2018-04-24T19:47:21.743Z,100888.59
2018-04-24T19:49:55.726Z,100895.44
2018-04-24T19:52:23.900Z,100892.14
2018-04-24T19:54:57.582Z,100893.22
2018-04-24T19:57:25.732Z,100888.76
2018-04-24T19:59:53.896Z,100884.95
2018-04-24T20:02:22.052Z,100892.86
2018-04-24T20:04:50.214Z,100872.83
2018-04-24T20:07:18.392Z,100872.09
2018-04-24T20:09:46.546Z,100870.61
2018-04-24T20:12:14.770Z,100864.95
2018-04-24T20:14:42.878Z,100863.85
2018-04-24T20:17:11.015Z,100854.11
2018-04-24T20:19:39.635Z,100855.78
2018-04-24T20:22:07.812Z,100857.56
2018-04-24T20:24:35.944Z,100850.94
2018-04-24T20:27:04.109Z,100851.20
2018-04-24T20:29:32.220Z,100838.32
2018-04-24T20:32:00.348Z,100841.26
2018-04-24T20:34:28.515Z,100835.19
2018-04-24T20:36:56.662Z,100838.22
2018-04-24T20:39:24.816Z,100829.12
2018-04-24T20:41:52.949Z,100825.73
2018-04-24T20:44:21.078Z,100815.88
2018-04-24T20:46:49.308Z,100807.20
2018-04-24T20:49:17.424Z,100805.17
2018-04-24T20:51:45.566Z,100799.03
2018-04-24T20:54:13.701Z,100796.87
2018-04-24T20:56:41.867Z,100791.88
2018-04-24T20:59:09.998Z,100784.58
2018-04-24T21:01:38.133Z,100786.80
2018-04-24T21:04:06.275Z,100775.16
2018-04-24T21:06:34.401Z,100771.89
2018-04-24T21:09:02.523Z,100773.86
2018-04-24T21:11:30.679Z,100768.47
2018-04-24T21:13:58.839Z,100763.92
2018-04-24T21:16:26.952Z,100758.23
2018-04-24T21:18:55.318Z,100758.75
2018-04-24T21:21:23.461Z,100752.98
2018-04-24T21:23:51.620Z,100746.20
2018-04-24T21:26:19.763Z,100748.19
2018-04-24T21:28:47.980Z,100747.77
2018-04-24T21:31:16.100Z,100750.48
2018-04-24T21:33:44.272Z,100740.34
2018-04-24T21:36:12.400Z,100745.44
2018-04-24T21:38:40.531Z,100745.17
2018-04-24T21:41:08.676Z,100740.33
2018-04-24T21:43:36.831Z,100742.78
2018-04-24T21:46:04.966Z,100730.83
2018-04-24T21:48:33.793Z,100733.58
2018-04-24T21:51:02.068Z,100724.77
2018-04-24T21:53:30.215Z,100715.30
2018-04-24T21:55:58.341Z,100721.63
2018-04-24T21:58:26.507Z,100716.39
2018-04-24T22:00:54.643Z,100708.77
2018-04-24T22:03:22.795Z,100711.64
2018-04-24T22:05:50.930Z,100710.75
2018-04-24T22:08:19.067Z,100697.33
2018-04-24T22:10:47.228Z,100692.97
2018-04-24T22:13:15.363Z,100693.80
2018-04-24T22:15:43.512Z,100691.63
2018-04-24T22:18:11.672Z,100675.75
2018-04-24T22:20:39.791Z,100671.39
2018-04-24T22:23:07.928Z,100673.28
2018-04-24T22:25:36.069Z,100662.91
2018-04-24T22:28:04.213Z,100656.41
2018-04-24T22:30:32.340Z,100660.19
2018-04-24T22:33:00.490Z,100648.51
2018-04-24T22:35:28.631Z,100645.42
2018-04-24T22:37:56.804Z,100647.44
2018-04-24T22:40:25.185Z,100628.17
2018-04-24T22:42:53.390Z,100618.61
2018-04-24T22:45:21.541Z,100618.06
2018-04-24T22:47:49.699Z,100617.08
2018-04-24T22:50:18.742Z,100610.74
2018-04-24T22:52:46.892Z,100605.90
2018-04-24T22:55:15.042Z,100602.38
2018-04-24T22:57:43.180Z,100598.59
2018-04-24T23:00:11.342Z,100590.22
2018-04-24T23:02:39.498Z,100592.95
2018-04-24T23:05:07.629Z,100587.41
2018-04-24T23:07:35.766Z,100584.76
2018-04-24T23:10:03.364Z,100581.98
2018-04-24T23:12:43.122Z,100576.81
2018-04-24T23:15:23.078Z,100568.27
2018-04-24T23:18:03.118Z,100568.74
2018-04-24T23:20:30.762Z,100567.64
2018-04-24T23:22:58.870Z,100561.84
2018-04-24T23:25:27.007Z,100564.70
2018-04-24T23:27:55.162Z,100569.32
2018-04-24T23:30:23.296Z,100557.08
2018-04-24T23:32:51.469Z,100556.59
2018-04-24T23:35:19.618Z,100551.45
2018-04-24T23:37:47.894Z,100545.36
2018-04-24T23:40:16.034Z,100535.56
2018-04-24T23:42:44.177Z,100535.58
2018-04-24T23:45:12.314Z,100530.16
2018-04-24T23:47:40.473Z,100531.09
2018-04-24T23:50:08.618Z,100521.06
2018-04-24T23:52:36.754Z,100518.78
2018-04-24T23:55:04.886Z,100512.52
2018-04-24T23:57:33.025Z,100513.06
